• Join FlightAware (Why Join?)
  • Login
  • US Flag 
01:44PM EDT


 

Airport Tracker/Info


-or-


 

Live Flight TrackerFlight Track Log ✈ UAL4422 ✈ 23-Apr-2013 ✈ KIAH - KMAF

Flight Track Log - Related Links

Times and Time Zones

All times are in EDT time to prevent confusion due to time zone crossing. See the UAL4422 flight status page for this flight to view local times or setup timezone preferences in your user account.

Time Position Orientation Groundspeed Altitude Reporting Facility
EDT Latitude Longitude Course Direction KTS MPH feet Rate Location/Type
04:20PM 29.9594 -95.3414 276° West 155 178 800  Level Houston Center
04:22PM 29.9081 -95.3775 211° Southwest 236 272 2,700 1,800 Climbing Houston Center
04:23PM 29.8708 -95.4533 241° Southwest 268 308 4,900 2,280 Climbing Houston Center
04:24PM 30.0291 -95.7617 277° West  Level FlightAware Approximate
04:24PM 29.8911 -95.5375 286° West 281 323 7,200  Level Houston Center
04:25PM 30.0392 -95.8694 276° West  Level FlightAware Approximate
04:25PM 29.9158 -95.6239 288° West 277 319 9,500  Level Houston Center
04:26PM 30.0481 -95.9773 276° West  Level FlightAware Approximate
04:26PM 29.9444 -95.7136 290° West 286 329 10,800  Level Houston Center
04:27PM 29.9739 -95.8153 289° West 331 381 11,500 1,020 Climbing Houston Center
04:28PM 30.0058 -95.9222 289° West 352 405 13,000 1,500 Climbing Houston Center
04:29PM 30.0439 -96.0519 289° West 351 404 14,700 1,320 Climbing Houston Center
04:30PM 30.0758 -96.1608 289° West 360 414 15,800 1,200 Climbing Houston Center
04:31PM 30.1042 -96.2711 287° West 360 414 17,300 1,200 Climbing Houston Center
04:32PM 30.1200 -96.3836 279° West 358 412 18,300 1,080 Climbing Houston Center
04:33PM 30.1375 -96.5006 280° West 363 418 19,600 1,140 Climbing Houston Center
04:34PM 30.1564 -96.6164 281° West 363 418 20,700 1,140 Climbing Houston Center
04:35PM 30.1758 -96.7561 279° West 372 428 22,000 1,200 Climbing Houston Center
04:36PM 30.1950 -96.8758 281° West 374 430 23,200 1,260 Climbing Houston Center
04:37PM 30.2119 -96.9942 279° West 371 427 24,700 1,440 Climbing Houston Center
04:38PM 30.2289 -97.1089 280° West 363 418 26,200 1,380 Climbing Houston Center
04:39PM 30.2456 -97.2211 280° West 355 409 27,600 840 Climbing Houston Center
04:40PM 30.2614 -97.3328 279° West 349 402 28,000 180 Climbing Houston Center
04:41PM 30.2786 -97.4533 279° West 363 418 28,000  Level Houston Center
04:42PM 30.2969 -97.5750 280° West 377 434 28,000  Level Houston Center
04:43PM 30.3178 -97.7239 279° West 393 452 28,000  Level Houston Center
04:45PM 30.3353 -97.8533 279° West 399 459 28,000  Level Houston Center
04:46PM 30.3544 -97.9825 280° West 401 461 28,000  Level Houston Center
04:47PM 30.3725 -98.1139 279° West 406 467 28,000  Level Houston Center
04:48PM 30.3906 -98.2444 279° West 406 467 28,000  Level Houston Center
04:49PM 30.4083 -98.3753 279° West 406 467 28,000  Level Houston Center
04:50PM 30.4264 -98.5064 279° West 407 468 28,000  Level Houston Center
04:51PM 30.4442 -98.6361 279° West 406 467 28,000  Level Houston Center
04:52PM 30.4644 -98.7883 279° West 406 467 28,000  Level Houston Center
04:53PM 30.4811 -98.9197 278° West 407 468 28,000  Level Houston Center
04:54PM 30.4981 -99.0503 279° West 406 467 28,000 -120 Level Houston Center
04:56PM 30.5319 -99.3011 279° West 406 467 27,700 -540 Descending Houston Center
04:57PM 30.5525 -99.4592 279° West 413 475 26,500 -1,080 Descending Houston Center
04:58PM 30.5706 -99.5936 279° West 421 484 25,500 -1,200 Descending Houston Center
04:59PM 30.5878 -99.7256 279° West 417 480 24,100 -1,440 Descending Houston Center
05:00PM 30.6331 -99.8431 294° West 420 483 22,600 -1,080 Descending Houston Center
05:01PM 30.7253 -99.9200 324° Northwest 420 483 21,900 -360 Descending Houston Center
05:02PM 30.8411 -100.0144 325° Northwest 428 493 21,900  Level Houston Center
05:03PM 30.9375 -100.0928 325° Northwest 426 490 22,000  Climbing Houston Center
05:04PM 31.0333 -100.1728 324° Northwest 426 490 21,900  Descending Houston Center
05:05PM 31.0994 -100.2778 306° West 413 475 22,000  Climbing Houston Center
05:06PM 31.1408 -100.3792 296° West 406 467 22,000  Level Fort Worth Center
05:07PM 31.1944 -100.4925 299° West 400 460 22,000  Level Fort Worth Center
05:08PM 31.2436 -100.6083 296° West 400 460 22,000  Level Fort Worth Center
05:09PM 31.2950 -100.7267 297° West 400 460 22,000  Level Fort Worth Center
05:10PM 31.3503 -100.8381 300° West 400 460 22,000  Level Fort Worth Center
05:10PM 31.3681 -100.8767 298° West 410 472 22,000  Level Houston Center
05:11PM 31.3994 -100.9544 295° West 405 466 22,000 -420 Level Fort Worth Center
05:12PM 31.4503 -101.0708 297° West 405 466 21,400 -960 Descending Fort Worth Center
05:13PM 31.5031 -101.1875 298° West 400 460 20,100 -1,500 Descending Fort Worth Center
05:14PM 31.5581 -101.3042 299° West 400 460 18,500 -1,860 Descending Fort Worth Center
05:15PM 31.6025 -101.4158 295° West 395 455 16,400 -1,680 Descending Fort Worth Center
05:16PM 31.6492 -101.5253 297° West 390 449 15,200 -1,140 Descending Fort Worth Center
05:17PM 31.6914 -101.6344 294° West 385 443 14,200 -600 Descending Fort Worth Center
05:18PM 31.7231 -101.7483 288° West 373 429 14,000 -120 Descending Fort Worth Center
05:19PM 31.7544 -101.8644 288° West 373 429 14,000 -1,020 Level Fort Worth Center
05:20PM 31.7842 -101.9711 288° West 358 412 12,000 -1,800 Descending Fort Worth Center
05:21PM 31.8097 -102.0700 287° West 337 388 10,400 -1,500 Descending Fort Worth Center
05:22PM 31.8317 -102.1544 287° West 302 348 9,000 -1,620 Descending Fort Worth Center
05:23PM 31.8514 -102.2386 285° West 278 320 7,200 -1,500 Descending Fort Worth Center
05:24PM 31.8778 -102.3133 293° West 264 304 6,000 -600 Descending Fort Worth Center
05:25PM 31.9261 -102.3525 325° Northwest 220 253 6,000  Level Fort Worth Center